createdAt,value
2019-06-25T00:01:34.846Z,5.90
2019-06-25T00:04:07.108Z,7.42
2019-06-25T00:06:39.124Z,6.08
2019-06-25T00:09:11.317Z,6.85
2019-06-25T00:11:43.395Z,6.37
2019-06-25T00:14:15.526Z,6.00
2019-06-25T00:16:47.708Z,6.40
2019-06-25T00:19:19.859Z,6.67
2019-06-25T00:21:52.044Z,7.22
2019-06-25T00:24:25.012Z,7.05
2019-06-25T00:26:57.078Z,6.62
2019-06-25T00:29:29.090Z,6.85
2019-06-25T00:32:01.207Z,7.40
2019-06-25T00:34:33.108Z,7.62
2019-06-25T00:37:05.113Z,6.47
2019-06-25T00:39:37.462Z,6.50
2019-06-25T00:42:09.929Z,7.25
2019-06-25T00:44:42.877Z,6.45
2019-06-25T00:47:14.965Z,6.53
2019-06-25T00:49:46.968Z,6.30
2019-06-25T00:52:20.094Z,6.45
2019-06-25T00:54:53.120Z,6.47
2019-06-25T00:57:25.218Z,6.85
2019-06-25T01:00:11.988Z,6.70
2019-06-25T01:02:43.184Z,7.30
2019-06-25T01:05:15.695Z,7.30
2019-06-25T01:07:47.875Z,8.13
2019-06-25T01:10:19.983Z,6.75
2019-06-25T01:12:52.083Z,7.10
2019-06-25T01:15:24.305Z,6.83
2019-06-25T01:17:57.994Z,8.55
2019-06-25T01:20:30.173Z,6.85
2019-06-25T01:23:02.291Z,7.00
2019-06-25T01:25:34.322Z,6.70
2019-06-25T01:28:06.441Z,6.92
2019-06-25T01:30:38.511Z,6.70
2019-06-25T01:33:10.633Z,7.70
2019-06-25T01:35:42.799Z,6.85
2019-06-25T01:38:14.930Z,7.05
2019-06-25T01:40:47.056Z,6.80
2019-06-25T01:43:20.170Z,7.90
2019-06-25T01:45:52.262Z,8.15
2019-06-25T01:48:24.366Z,7.85
2019-06-25T01:50:56.454Z,8.13
2019-06-25T01:53:28.599Z,7.85
2019-06-25T01:56:00.638Z,8.40
2019-06-25T01:58:32.698Z,7.22
2019-06-25T02:01:04.771Z,8.65
2019-06-25T02:03:36.911Z,8.33
2019-06-25T02:06:09.294Z,8.50
2019-06-25T02:08:41.432Z,8.38
2019-06-25T02:11:13.628Z,8.48
2019-06-25T02:13:45.622Z,7.72
2019-06-25T02:16:17.804Z,8.50
2019-06-25T02:18:49.916Z,9.48
2019-06-25T02:21:22.011Z,8.60
2019-06-25T02:23:54.055Z,8.03
2019-06-25T02:26:26.175Z,8.20
2019-06-25T02:28:58.286Z,8.20
2019-06-25T02:31:48.246Z,7.87
2019-06-25T02:34:20.979Z,7.78
2019-06-25T02:36:59.074Z,8.60
2019-06-25T02:39:33.850Z,8.63
2019-06-25T02:42:10.854Z,7.45
2019-06-25T02:44:44.209Z,8.43
2019-06-25T02:47:20.187Z,8.63
2019-06-25T02:49:53.614Z,8.37
2019-06-25T02:52:26.884Z,8.43
2019-06-25T02:55:00.651Z,8.15
2019-06-25T02:57:33.530Z,8.43
2019-06-25T03:00:16.667Z,9.25
2019-06-25T03:02:50.105Z,9.20
2019-06-25T03:05:23.313Z,8.70
2019-06-25T03:07:56.307Z,9.50
2019-06-25T03:10:28.879Z,8.00
2019-06-25T03:13:01.929Z,10.40
2019-06-25T03:15:35.363Z,8.73
2019-06-25T03:18:08.518Z,9.70
2019-06-25T03:20:42.067Z,8.98
2019-06-25T03:23:14.854Z,8.10
2019-06-25T03:25:48.407Z,9.10
2019-06-25T03:28:20.333Z,9.10
2019-06-25T03:30:53.137Z,8.75
2019-06-25T03:33:26.378Z,9.25
2019-06-25T03:35:59.641Z,9.95
2019-06-25T03:38:32.973Z,9.33
2019-06-25T03:41:08.060Z,9.95
2019-06-25T03:43:41.246Z,10.20
2019-06-25T03:46:15.482Z,9.80
2019-06-25T03:48:50.776Z,9.15
2019-06-25T03:51:40.189Z,9.58
2019-06-25T03:54:16.629Z,9.10
2019-06-25T03:56:48.823Z,8.93
2019-06-25T03:59:21.038Z,9.13
2019-06-25T04:01:55.900Z,9.08
2019-06-25T04:04:28.132Z,9.38
2019-06-25T04:06:59.293Z,10.05
2019-06-25T04:09:32.120Z,9.13
2019-06-25T04:12:04.221Z,9.70
2019-06-25T04:14:36.364Z,9.38
2019-06-25T04:17:08.522Z,9.90
2019-06-25T04:19:40.728Z,10.20
2019-06-25T04:22:13.425Z,11.20
2019-06-25T04:24:46.744Z,10.05
2019-06-25T04:27:19.108Z,9.73
2019-06-25T04:29:51.215Z,10.50
2019-06-25T04:32:32.846Z,10.20
2019-06-25T04:34:57.137Z,9.73
2019-06-25T04:37:29.239Z,10.35
2019-06-25T04:40:02.433Z,10.85
2019-06-25T04:42:36.920Z,11.20
2019-06-25T04:45:10.037Z,10.60
2019-06-25T04:47:42.902Z,10.98
2019-06-25T04:50:17.270Z,11.05
2019-06-25T04:52:50.351Z,11.30
2019-06-25T04:55:24.288Z,10.28
2019-06-25T04:57:57.569Z,10.15
2019-06-25T05:00:29.850Z,9.58
2019-06-25T05:03:02.086Z,9.85
2019-06-25T05:05:34.218Z,10.50
2019-06-25T05:08:06.413Z,9.68
2019-06-25T05:10:38.555Z,9.87
2019-06-25T05:13:11.308Z,10.18
2019-06-25T05:15:43.455Z,9.95
2019-06-25T05:18:15.745Z,16.00
2019-06-25T05:20:47.892Z,9.30
2019-06-25T05:23:20.562Z,9.55
2019-06-25T05:25:53.289Z,8.98
2019-06-25T05:28:25.429Z,9.18
2019-06-25T05:30:57.774Z,8.88
2019-06-25T05:33:29.966Z,9.45
2019-06-25T05:36:23.758Z,9.68
2019-06-25T05:38:55.793Z,9.25
2019-06-25T05:41:28.190Z,8.45
2019-06-25T05:44:00.334Z,9.30
2019-06-25T05:46:33.350Z,9.07
2019-06-25T05:49:05.429Z,7.80
2019-06-25T05:51:41.407Z,8.33
2019-06-25T05:54:11.406Z,9.10
2019-06-25T05:56:44.730Z,8.40
2019-06-25T05:59:16.844Z,8.30
2019-06-25T06:01:48.963Z,9.00
2019-06-25T06:04:22.399Z,8.40
2019-06-25T06:06:54.524Z,9.30
2019-06-25T06:09:26.549Z,9.83
2019-06-25T06:11:58.562Z,8.67
2019-06-25T06:14:31.668Z,9.43
2019-06-25T06:17:03.808Z,9.27
2019-06-25T06:19:35.797Z,8.87
2019-06-25T06:22:08.298Z,8.90
2019-06-25T06:24:40.425Z,9.40
2019-06-25T06:27:13.117Z,9.23
2019-06-25T06:29:45.313Z,9.10
2019-06-25T06:32:17.402Z,7.77
2019-06-25T06:34:49.521Z,7.33
2019-06-25T06:37:21.629Z,6.47
2019-06-25T06:39:53.667Z,7.97
2019-06-25T06:42:25.654Z,7.50
2019-06-25T06:44:57.850Z,7.37
2019-06-25T06:47:29.996Z,7.50
2019-06-25T06:50:02.199Z,7.90
2019-06-25T06:52:34.344Z,6.77
2019-06-25T06:55:06.975Z,6.83
2019-06-25T06:57:39.024Z,7.27
2019-06-25T07:00:11.308Z,7.17
2019-06-25T07:02:43.357Z,7.53
2019-06-25T07:05:15.686Z,7.20
2019-06-25T07:07:47.937Z,7.77
2019-06-25T07:10:20.745Z,7.70
2019-06-25T07:12:52.883Z,6.73
2019-06-25T07:15:24.957Z,6.97
2019-06-25T07:17:56.992Z,7.30
2019-06-25T07:20:33.852Z,6.93
2019-06-25T07:23:03.899Z,7.10
2019-06-25T07:25:36.021Z,7.50
2019-06-25T07:28:08.013Z,7.83
2019-06-25T07:30:40.270Z,7.60
2019-06-25T07:33:12.333Z,7.70
2019-06-25T07:35:44.539Z,7.00
2019-06-25T07:38:16.715Z,6.37
2019-06-25T07:40:48.829Z,7.07
2019-06-25T07:43:20.841Z,6.50
2019-06-25T07:45:52.889Z,6.47
2019-06-25T07:48:25.288Z,7.10
2019-06-25T07:50:57.303Z,6.73
2019-06-25T07:53:29.518Z,7.07
2019-06-25T07:56:01.869Z,6.97
2019-06-25T07:58:33.925Z,6.80
2019-06-25T08:01:06.290Z,6.60
2019-06-25T08:03:38.395Z,7.10
2019-06-25T08:06:10.518Z,6.60
2019-06-25T08:08:42.848Z,7.37
2019-06-25T08:11:15.383Z,7.70
2019-06-25T08:13:47.465Z,7.40
2019-06-25T08:16:19.489Z,7.70
2019-06-25T08:18:51.512Z,6.90
2019-06-25T08:21:23.838Z,6.77
2019-06-25T08:23:56.021Z,6.90
2019-06-25T08:26:28.217Z,7.60
2019-06-25T08:29:00.466Z,7.40
2019-06-25T08:31:32.513Z,7.00
2019-06-25T08:34:05.002Z,7.57
2019-06-25T08:36:37.025Z,7.20
2019-06-25T08:39:09.239Z,6.90
2019-06-25T08:41:44.217Z,7.60
2019-06-25T08:44:16.374Z,7.50
2019-06-25T08:46:48.782Z,7.60
2019-06-25T08:49:22.422Z,7.93
2019-06-25T08:51:54.980Z,7.17
2019-06-25T08:54:27.071Z,6.80
2019-06-25T08:57:01.120Z,6.90
2019-06-25T08:59:35.108Z,7.40
2019-06-25T09:02:07.341Z,7.30
2019-06-25T09:04:39.360Z,7.67
2019-06-25T09:07:15.339Z,7.13
2019-06-25T09:09:48.384Z,7.57
2019-06-25T09:12:20.646Z,7.30
2019-06-25T09:14:54.067Z,7.80
2019-06-25T09:17:28.812Z,7.83
2019-06-25T09:20:05.570Z,7.37
2019-06-25T09:22:38.196Z,7.37
2019-06-25T09:25:12.246Z,7.03
2019-06-25T09:27:44.607Z,8.30
2019-06-25T09:30:18.042Z,7.17
2019-06-25T09:32:57.011Z,7.60
2019-06-25T09:35:32.588Z,8.20
2019-06-25T09:38:10.656Z,7.30
2019-06-25T09:40:40.673Z,7.03
2019-06-25T09:43:10.447Z,7.80
2019-06-25T09:45:42.811Z,7.77
2019-06-25T09:48:15.135Z,6.80
2019-06-25T09:50:47.501Z,8.30
2019-06-25T09:53:21.957Z,7.70
2019-06-25T09:55:53.609Z,7.10
2019-06-25T09:58:29.235Z,8.00
2019-06-25T10:01:00.475Z,7.00
2019-06-25T10:03:32.692Z,6.87
2019-06-25T10:06:04.826Z,7.10
2019-06-25T10:08:37.060Z,7.13
2019-06-25T10:11:09.686Z,7.50
2019-06-25T10:13:41.894Z,7.47
2019-06-25T10:16:13.868Z,7.33
2019-06-25T10:18:46.004Z,7.47
2019-06-25T10:21:18.160Z,6.77
2019-06-25T10:23:50.219Z,6.57
2019-06-25T10:26:22.220Z,7.60
2019-06-25T10:28:54.655Z,6.93
2019-06-25T10:31:27.023Z,7.40
2019-06-25T10:34:00.077Z,6.67
2019-06-25T10:36:32.312Z,7.10
2019-06-25T10:39:06.215Z,6.57
2019-06-25T10:41:39.961Z,7.30
2019-06-25T10:44:12.035Z,7.00
2019-06-25T10:46:44.623Z,7.57
2019-06-25T10:49:17.125Z,7.60
2019-06-25T10:51:49.178Z,6.80
2019-06-25T10:54:21.395Z,6.53
2019-06-25T10:56:54.586Z,6.60
2019-06-25T10:59:26.926Z,7.03
2019-06-25T11:01:59.193Z,6.30
2019-06-25T11:04:31.812Z,6.67
2019-06-25T11:07:07.700Z,6.20
2019-06-25T11:09:37.826Z,6.23
2019-06-25T11:12:13.797Z,6.90
2019-06-25T11:14:43.905Z,7.30
2019-06-25T11:17:16.286Z,6.77
2019-06-25T11:19:48.538Z,6.20
2019-06-25T11:22:20.596Z,5.70
2019-06-25T11:24:52.989Z,5.20
2019-06-25T11:27:25.004Z,5.47
2019-06-25T11:29:57.093Z,5.07
2019-06-25T11:32:29.252Z,5.50
2019-06-25T11:35:02.113Z,6.10
2019-06-25T11:37:34.880Z,5.97
2019-06-25T11:40:08.936Z,6.20
2019-06-25T11:42:41.187Z,6.20
2019-06-25T11:45:23.967Z,5.73
2019-06-25T11:47:56.087Z,6.63
2019-06-25T11:50:36.665Z,7.20
2019-06-25T11:53:16.616Z,6.57
2019-06-25T11:55:53.413Z,7.80
2019-06-25T11:58:26.456Z,7.37
2019-06-25T12:00:58.701Z,7.10
2019-06-25T12:03:30.893Z,7.27
2019-06-25T12:06:03.008Z,7.47
2019-06-25T12:08:34.985Z,7.30
2019-06-25T12:11:07.206Z,7.13
2019-06-25T12:13:39.438Z,7.73
2019-06-25T12:16:18.454Z,7.20
2019-06-25T12:18:52.389Z,7.30
2019-06-25T12:21:24.537Z,7.30
2019-06-25T12:24:03.262Z,7.80
2019-06-25T12:26:41.286Z,6.90
2019-06-25T12:29:13.739Z,7.20
2019-06-25T12:31:45.913Z,7.03
2019-06-25T12:34:18.113Z,6.73
2019-06-25T12:36:50.347Z,6.97
2019-06-25T12:39:23.381Z,7.10
2019-06-25T12:42:04.963Z,6.73
2019-06-25T12:44:39.670Z,7.00
2019-06-25T12:47:12.826Z,6.13
2019-06-25T12:50:03.051Z,6.77
2019-06-25T12:52:46.527Z,6.70
2019-06-25T12:55:20.160Z,6.60
2019-06-25T12:57:52.281Z,6.47
2019-06-25T13:00:24.827Z,6.47
2019-06-25T13:02:57.012Z,6.20
2019-06-25T13:05:29.254Z,6.00
2019-06-25T13:08:01.398Z,6.07
2019-06-25T13:10:43.805Z,6.73
2019-06-25T13:13:07.338Z,6.47
2019-06-25T13:15:39.723Z,5.57
2019-06-25T13:18:11.715Z,6.17
2019-06-25T13:20:43.838Z,6.20
2019-06-25T13:23:15.940Z,6.33
2019-06-25T13:25:48.031Z,6.00
2019-06-25T13:28:20.118Z,6.20
2019-06-25T13:30:52.260Z,6.20
2019-06-25T13:33:24.208Z,5.70
2019-06-25T13:35:56.144Z,5.53
2019-06-25T13:38:28.260Z,6.60
2019-06-25T13:41:00.306Z,5.83
2019-06-25T13:43:32.274Z,6.40
2019-06-25T13:46:04.514Z,6.30
2019-06-25T13:48:36.668Z,6.10
2019-06-25T13:51:08.755Z,6.47
2019-06-25T13:53:40.760Z,5.67
2019-06-25T13:56:12.734Z,5.67
2019-06-25T13:58:44.910Z,5.50
2019-06-25T14:01:17.166Z,6.13
2019-06-25T14:03:49.253Z,5.70
2019-06-25T14:06:21.465Z,5.90
2019-06-25T14:08:54.498Z,5.80
2019-06-25T14:11:26.459Z,5.70
2019-06-25T14:13:58.522Z,5.47
2019-06-25T14:16:30.590Z,5.70
2019-06-25T14:19:02.660Z,6.00
2019-06-25T14:21:34.807Z,6.27
2019-06-25T14:24:07.003Z,6.30
2019-06-25T14:26:39.258Z,5.53
2019-06-25T14:29:11.373Z,4.70
2019-06-25T14:31:44.643Z,6.20
2019-06-25T14:34:16.730Z,5.73
2019-06-25T14:36:48.639Z,5.77
2019-06-25T14:39:20.724Z,5.97
2019-06-25T14:41:52.859Z,5.50
2019-06-25T14:44:24.869Z,5.70
2019-06-25T14:46:57.155Z,5.00
2019-06-25T14:49:29.249Z,5.40
2019-06-25T14:52:01.191Z,4.93
2019-06-25T14:54:33.331Z,4.83
2019-06-25T14:57:05.390Z,4.80
2019-06-25T14:59:37.472Z,5.30
2019-06-25T15:02:09.941Z,4.70
2019-06-25T15:04:42.136Z,4.97
2019-06-25T15:07:14.143Z,5.20
2019-06-25T15:09:49.322Z,5.20
2019-06-25T15:12:20.003Z,5.20
2019-06-25T15:14:52.001Z,4.80
2019-06-25T15:17:24.197Z,4.93
2019-06-25T15:19:56.275Z,4.50
2019-06-25T15:22:28.416Z,4.60
2019-06-25T15:25:02.092Z,4.90
2019-06-25T15:27:34.230Z,4.47
2019-06-25T15:30:08.462Z,4.50
2019-06-25T15:32:40.493Z,4.43
2019-06-25T15:35:13.025Z,4.60
2019-06-25T15:37:45.215Z,4.50
2019-06-25T15:40:17.407Z,4.60
2019-06-25T15:42:49.381Z,4.80
2019-06-25T15:45:21.427Z,3.73
2019-06-25T15:47:53.496Z,4.53
2019-06-25T15:50:25.567Z,4.33
2019-06-25T15:52:57.576Z,4.50
2019-06-25T15:55:29.588Z,4.00
2019-06-25T15:58:01.775Z,4.23
2019-06-25T16:00:33.828Z,4.03
2019-06-25T16:03:07.978Z,3.77
2019-06-25T16:05:39.661Z,3.93
2019-06-25T16:08:11.613Z,3.40
2019-06-25T16:10:43.703Z,4.17
2019-06-25T16:13:16.008Z,3.70
2019-06-25T16:15:47.958Z,3.77
2019-06-25T16:18:20.120Z,3.17
2019-06-25T16:20:52.264Z,3.17
2019-06-25T16:23:24.455Z,3.47
2019-06-25T16:25:56.547Z,3.60
2019-06-25T16:28:28.604Z,3.80
2019-06-25T16:31:00.512Z,3.30
2019-06-25T16:33:32.559Z,4.30
2019-06-25T16:36:04.692Z,3.87
2019-06-25T16:38:37.081Z,4.13
2019-06-25T16:41:09.105Z,4.10
2019-06-25T16:43:41.383Z,4.30
2019-06-25T16:46:13.526Z,4.20
2019-06-25T16:48:45.643Z,4.30
2019-06-25T16:51:17.631Z,4.03
2019-06-25T16:53:49.682Z,4.30
2019-06-25T16:56:21.846Z,3.97
2019-06-25T16:58:54.044Z,4.40
2019-06-25T17:01:26.458Z,4.80
2019-06-25T17:03:58.436Z,3.60
2019-06-25T17:06:30.668Z,4.23
2019-06-25T17:09:03.176Z,3.90
2019-06-25T17:11:37.497Z,4.10
2019-06-25T17:14:09.607Z,4.00
2019-06-25T17:16:41.616Z,4.20
2019-06-25T17:19:16.368Z,4.17
2019-06-25T17:21:47.402Z,3.80
2019-06-25T17:24:19.467Z,4.10
2019-06-25T17:26:51.588Z,4.03
2019-06-25T17:29:23.763Z,4.40
2019-06-25T17:31:55.923Z,4.00
2019-06-25T17:34:28.080Z,4.40
2019-06-25T17:37:00.318Z,3.90
2019-06-25T17:39:32.432Z,4.13
2019-06-25T17:42:04.645Z,5.57
2019-06-25T17:44:36.626Z,4.77
2019-06-25T17:47:11.093Z,5.20
2019-06-25T17:49:43.165Z,4.90
2019-06-25T17:52:15.245Z,4.83
2019-06-25T17:54:47.305Z,4.60
2019-06-25T17:57:19.932Z,4.50
2019-06-25T17:59:52.162Z,4.37
2019-06-25T18:02:24.286Z,4.50
2019-06-25T18:04:56.377Z,4.37
2019-06-25T18:07:28.558Z,4.33
2019-06-25T18:10:07.753Z,6.07
2019-06-25T18:12:34.686Z,5.50
2019-06-25T18:15:07.850Z,7.17
2019-06-25T18:17:39.950Z,5.20
2019-06-25T18:20:13.189Z,5.67
2019-06-25T18:22:45.401Z,5.60
2019-06-25T18:25:17.418Z,5.00
2019-06-25T18:27:49.667Z,4.70
2019-06-25T18:30:22.086Z,5.10
2019-06-25T18:32:54.241Z,5.50
2019-06-25T18:35:26.666Z,5.10
2019-06-25T18:37:59.634Z,5.30
2019-06-25T18:40:31.674Z,5.20
2019-06-25T18:43:03.873Z,5.53
2019-06-25T18:45:35.808Z,5.80
2019-06-25T18:48:07.955Z,5.27
2019-06-25T18:50:40.181Z,5.67
2019-06-25T18:53:12.404Z,6.10
2019-06-25T18:55:44.913Z,5.77
2019-06-25T18:58:17.029Z,6.50
2019-06-25T19:00:49.216Z,6.73
2019-06-25T19:03:21.624Z,6.00
2019-06-25T19:05:54.655Z,6.27
2019-06-25T19:08:26.764Z,6.43
2019-06-25T19:10:59.009Z,6.20
2019-06-25T19:13:31.317Z,5.80
2019-06-25T19:16:03.460Z,5.23
2019-06-25T19:18:35.504Z,5.93
2019-06-25T19:21:07.900Z,6.50
2019-06-25T19:23:40.080Z,6.23
2019-06-25T19:26:12.328Z,6.23
2019-06-25T19:28:44.425Z,6.57
2019-06-25T19:31:16.603Z,7.30
2019-06-25T19:33:48.624Z,6.53
2019-06-25T19:36:20.650Z,6.57
2019-06-25T19:38:52.838Z,6.40
2019-06-25T19:41:24.896Z,6.53
2019-06-25T19:43:58.037Z,6.50
2019-06-25T19:46:30.191Z,7.83
2019-06-25T19:49:02.374Z,6.83
2019-06-25T19:51:34.545Z,7.37
2019-06-25T19:54:06.685Z,6.90
2019-06-25T19:56:38.822Z,6.27
2019-06-25T19:59:10.927Z,7.60
2019-06-25T20:01:44.930Z,6.93
2019-06-25T20:04:16.971Z,6.97
2019-06-25T20:06:49.102Z,6.93
2019-06-25T20:09:21.238Z,6.37
2019-06-25T20:11:53.336Z,6.80
2019-06-25T20:14:25.432Z,6.90
2019-06-25T20:16:57.560Z,8.47
2019-06-25T20:19:29.775Z,6.60
2019-06-25T20:22:01.898Z,7.37
2019-06-25T20:24:33.849Z,7.67
2019-06-25T20:27:05.867Z,6.53
2019-06-25T20:29:38.038Z,7.60
2019-06-25T20:32:10.064Z,7.07
2019-06-25T20:34:42.189Z,7.80
2019-06-25T20:37:14.180Z,7.80
2019-06-25T20:39:46.271Z,8.43
2019-06-25T20:42:18.413Z,8.03
2019-06-25T20:44:50.478Z,8.23
2019-06-25T20:47:22.632Z,9.00
2019-06-25T20:49:55.650Z,7.87
2019-06-25T20:52:27.813Z,8.40
2019-06-25T20:54:59.789Z,8.00
2019-06-25T20:57:31.894Z,8.30
2019-06-25T21:00:04.099Z,9.00
2019-06-25T21:02:36.718Z,8.17
2019-06-25T21:05:09.079Z,9.67
2019-06-25T21:07:41.057Z,8.43
2019-06-25T21:10:15.414Z,8.67
2019-06-25T21:12:47.033Z,9.57
2019-06-25T21:15:19.114Z,8.87
2019-06-25T21:17:50.993Z,8.97
2019-06-25T21:20:22.844Z,9.77
2019-06-25T21:22:57.871Z,9.57
2019-06-25T21:25:28.581Z,9.23
2019-06-25T21:28:00.560Z,10.20
2019-06-25T21:30:32.635Z,9.35
2019-06-25T21:33:04.734Z,9.57
2019-06-25T21:35:37.917Z,8.90
2019-06-25T21:38:09.858Z,10.23
2019-06-25T21:40:41.801Z,10.32
2019-06-25T21:43:13.660Z,11.00
2019-06-25T21:45:45.691Z,10.25
2019-06-25T21:48:17.659Z,10.55
2019-06-25T21:50:49.692Z,10.00
2019-06-25T21:53:21.608Z,10.08
2019-06-25T21:55:53.766Z,10.20
2019-06-25T21:58:25.727Z,10.80
2019-06-25T22:01:02.263Z,10.82
2019-06-25T22:03:33.446Z,11.05
2019-06-25T22:06:05.643Z,10.90
2019-06-25T22:08:37.864Z,10.40
2019-06-25T22:11:10.031Z,11.38
2019-06-25T22:13:42.205Z,12.30
2019-06-25T22:16:14.631Z,10.45
2019-06-25T22:18:46.856Z,10.60
2019-06-25T22:21:21.289Z,10.75
2019-06-25T22:23:52.832Z,11.25
2019-06-25T22:26:24.885Z,11.43
2019-06-25T22:28:57.461Z,10.85
2019-06-25T22:31:31.325Z,10.98
2019-06-25T22:34:03.648Z,10.48
2019-06-25T22:36:35.843Z,11.90
2019-06-25T22:39:09.211Z,10.05
2019-06-25T22:41:42.878Z,10.98
2019-06-25T22:44:15.033Z,10.15
2019-06-25T22:46:47.127Z,9.70
2019-06-25T22:49:19.312Z,10.38
2019-06-25T22:51:51.468Z,9.78
2019-06-25T22:54:23.760Z,10.10
2019-06-25T22:56:55.801Z,10.80
2019-06-25T22:59:27.939Z,10.28
2019-06-25T23:02:00.106Z,10.20
2019-06-25T23:04:32.550Z,9.98
2019-06-25T23:07:04.730Z,10.10
2019-06-25T23:09:36.843Z,10.85
2019-06-25T23:12:08.855Z,10.78
2019-06-25T23:14:41.103Z,10.68
2019-06-25T23:17:13.097Z,10.48
2019-06-25T23:19:45.089Z,9.98
2019-06-25T23:22:17.274Z,10.70
2019-06-25T23:24:50.268Z,11.60
2019-06-25T23:27:22.432Z,10.35
2019-06-25T23:29:54.559Z,10.75
2019-06-25T23:32:26.625Z,10.83
2019-06-25T23:34:58.672Z,10.58
2019-06-25T23:37:31.004Z,10.60
2019-06-25T23:40:04.204Z,11.38
2019-06-25T23:42:36.452Z,10.50
2019-06-25T23:45:08.993Z,11.45
2019-06-25T23:47:41.176Z,10.13
2019-06-25T23:50:13.683Z,10.50
2019-06-25T23:52:45.826Z,10.25
2019-06-25T23:55:18.063Z,11.35
2019-06-25T23:57:50.205Z,11.08
